Time;durP1;ratioP1;P1;durP2;ratioP2;P2;SDS_P1;SDS_P2;PMS_P1;PMS_P2;Temp;Humidity;BMP_temperature;BMP_pressure;BME280_temperature;BME280_humidity;BME280_pressure;Samples;Min_cycle;Max_cycle;Signal;HPM_P1;HPM_P2
2023/04/16 00:00:47;;;;;;;;;9.00;8.50;;;;;12.26;57.91;101973.91;4981076;28;45345;-64
2023/04/16 00:03:12;;;;;;;;;6.00;6.00;;;;;12.14;57.54;101957.16;4990400;28;45825;-64
2023/04/16 00:05:38;;;;;;;;;12.50;7.75;;;;;12.21;57.09;101980.25;4984255;28;45492;-64
2023/04/16 00:08:03;;;;;;;;;8.25;8.25;;;;;12.20;57.51;101977.59;4981256;28;46198;-64
2023/04/16 00:10:29;;;;;;;;;9.25;6.75;;;;;12.15;57.27;101976.81;4980834;28;45391;-64
2023/04/16 00:12:54;;;;;;;;;9.00;9.00;;;;;12.14;56.89;101986.59;4979953;28;45523;-64
2023/04/16 00:15:19;;;;;;;;;9.50;7.00;;;;;12.11;57.29;101992.03;4980312;28;45484;-64
2023/04/16 00:17:45;;;;;;;;;10.00;7.00;;;;;12.09;57.87;101985.81;4981111;28;45547;-64
2023/04/16 00:20:10;;;;;;;;;4.00;4.00;;;;;12.00;57.58;101978.84;4980892;28;45317;-64
2023/04/16 00:22:36;;;;;;;;;6.75;6.50;;;;;12.07;57.72;101989.44;4963336;28;45480;-64
2023/04/16 00:25:01;;;;;;;;;5.75;5.75;;;;;12.03;57.67;101985.94;4980628;28;45546;-64
2023/04/16 00:27:26;;;;;;;;;4.00;3.00;;;;;12.02;57.48;101990.38;4979921;28;46019;-63
2023/04/16 00:29:52;;;;;;;;;10.00;8.25;;;;;12.02;57.22;101986.84;4983521;28;45306;-64
2023/04/16 00:32:17;;;;;;;;;6.25;6.00;;;;;11.96;57.09;101989.63;4981115;28;45283;-64
2023/04/16 00:34:43;;;;;;;;;8.00;6.50;;;;;11.88;57.56;101979.03;4980597;28;45340;-63
2023/04/16 00:37:08;;;;;;;;;7.75;6.25;;;;;11.90;57.38;101984.38;4977937;28;51345;-64
2023/04/16 00:39:34;;;;;;;;;4.75;4.75;;;;;11.82;57.23;101989.84;4963072;28;45295;-64
2023/04/16 00:41:59;;;;;;;;;6.50;4.50;;;;;11.78;57.41;101986.34;4980742;28;45337;-64
2023/04/16 00:44:24;;;;;;;;;9.00;6.25;;;;;11.74;57.41;101981.94;4980676;28;45507;-64
2023/04/16 00:46:50;;;;;;;;;6.25;5.00;;;;;11.70;57.44;101982.91;4980617;28;45912;-64
2023/04/16 00:49:16;;;;;;;;;4.50;4.50;;;;;11.70;57.63;101988.28;4980554;28;45482;-64
2023/04/16 00:51:41;;;;;;;;;4.00;4.00;;;;;11.73;57.45;101982.88;4980761;28;45448;-63
2023/04/16 00:54:06;;;;;;;;;5.50;5.50;;;;;11.71;57.31;101981.13;4980328;28;45440;-64
2023/04/16 00:56:34;;;;;;;;;6.25;6.25;;;;;11.68;57.69;101984.75;4979096;28;46300;-64
2023/04/16 00:59:00;;;;;;;;;6.00;6.00;;;;;11.63;57.75;101982.13;4979917;28;45425;-64
2023/04/16 01:01:25;;;;;;;;;6.00;6.00;;;;;11.61;57.30;101972.38;4980528;28;45558;-64
2023/04/16 01:03:50;;;;;;;;;5.75;4.75;;;;;11.59;57.27;101985.75;4993060;28;45328;-64
2023/04/16 01:06:17;;;;;;;;;7.50;5.75;;;;;11.58;57.69;101981.34;4980382;28;45230;-64
2023/04/16 01:08:43;;;;;;;;;5.25;5.25;;;;;11.53;57.62;101983.22;4962831;28;45715;-64
2023/04/16 01:11:09;;;;;;;;;6.50;6.00;;;;;11.51;57.78;101985.03;4980275;28;45398;-64
2023/04/16 01:13:38;;;;;;;;;4.00;4.00;;;;;11.41;57.85;101970.94;4979426;28;45459;-64
2023/04/16 01:16:07;;;;;;;;;11.00;6.75;;;;;11.47;58.02;101984.16;4980014;28;46928;-64
2023/04/16 01:18:32;;;;;;;;;6.50;6.50;;;;;11.49;58.01;101986.81;4980177;28;45329;-64
2023/04/16 01:20:58;;;;;;;;;8.75;8.75;;;;;11.48;57.88;101985.94;4979863;28;45469;-64
2023/04/16 01:23:23;;;;;;;;;5.75;4.00;;;;;11.49;58.00;101978.81;4980017;28;45470;-64
2023/04/16 01:25:48;;;;;;;;;6.00;5.50;;;;;11.48;57.77;101983.28;4978788;28;45529;-64
2023/04/16 01:28:14;;;;;;;;;6.00;6.00;;;;;11.41;57.75;101970.94;4978690;28;45305;-64
2023/04/16 01:30:39;;;;;;;;;9.00;6.00;;;;;11.35;57.95;101965.66;4983129;28;45309;-64
2023/04/16 01:33:06;;;;;;;;;9.00;9.00;;;;;11.42;57.42;101983.38;4979983;28;45421;-64
2023/04/16 01:35:31;;;;;;;;;10.00;8.00;;;;;11.41;57.99;101980.72;4980974;28;46414;-64
2023/04/16 01:37:56;;;;;;;;;8.50;6.50;;;;;11.34;57.79;101971.91;4970173;28;45277;-64
2023/04/16 01:40:21;;;;;;;;;6.00;6.00;;;;;11.32;57.90;101971.06;4979806;28;45376;-63
2023/04/16 01:42:47;;;;;;;;;4.50;4.25;;;;;11.29;57.70;101969.34;4978840;28;45853;-63
2023/04/16 01:45:12;;;;;;;;;6.00;6.00;;;;;11.28;57.98;101964.88;4979106;28;46125;-64
2023/04/16 01:47:37;;;;;;;;;4.25;4.25;;;;;11.27;57.91;101978.28;4979686;28;45479;-63
2023/04/16 01:50:04;;;;;;;;;5.00;3.50;;;;;11.24;57.79;101975.63;4979927;28;45375;-63
2023/04/16 01:52:30;;;;;;;;;5.25;5.25;;;;;11.23;58.10;101988.13;4979335;28;45466;-63
2023/04/16 01:54:55;;;;;;;;;8.25;6.00;;;;;11.23;57.27;101992.59;4979403;28;45644;-63
2023/04/16 01:57:20;;;;;;;;;9.00;6.25;;;;;11.19;57.85;101982.84;4979204;28;45260;-64
2023/04/16 01:59:46;;;;;;;;;6.25;6.00;;;;;11.27;57.96;101997.84;4979865;28;45487;-63
2023/04/16 02:02:15;;;;;;;;;8.00;6.00;;;;;11.27;58.17;102005.88;4980204;28;45330;-64
2023/04/16 02:04:42;;;;;;;;;6.25;6.00;;;;;11.24;58.17;101995.25;4973067;28;47630;-64
2023/04/16 02:07:08;;;;;;;;;6.00;6.00;;;;;11.25;58.14;102001.47;4978634;28;45823;-64
2023/04/16 02:09:34;;;;;;;;;5.00;4.75;;;;;11.19;57.87;101990.88;4979537;28;45489;-64
2023/04/16 02:12:02;;;;;;;;;8.25;8.00;;;;;11.16;58.15;102001.59;4979076;28;45601;-64
2023/04/16 02:14:27;;;;;;;;;8.00;8.00;;;;;11.16;58.07;102006.94;4978927;28;46238;-64
2023/04/16 02:16:52;;;;;;;;;7.25;7.25;;;;;11.11;58.03;102004.34;4979273;28;45307;-63
2023/04/16 02:19:18;;;;;;;;;11.75;8.75;;;;;11.12;58.48;102000.75;4979604;28;45222;-64
2023/04/16 02:21:43;;;;;;;;;7.25;7.25;;;;;11.04;58.20;101989.28;4978850;28;45322;-63
2023/04/16 02:24:08;;;;;;;;;10.00;8.00;;;;;11.10;58.22;102011.47;4978690;28;60690;-64
2023/04/16 02:26:34;;;;;;;;;8.00;7.50;;;;;11.03;58.55;102001.78;4981739;28;45481;-64
2023/04/16 02:29:00;;;;;;;;;5.00;5.00;;;;;11.07;58.55;102008.84;4982485;28;45412;-64
2023/04/16 02:31:27;;;;;;;;;7.50;7.50;;;;;11.04;58.45;102003.56;4985887;28;45280;-63
2023/04/16 02:33:52;;;;;;;;;9.75;8.50;;;;;10.99;58.72;102001.84;4981921;28;46414;-64
2023/04/16 02:36:18;;;;;;;;;10.75;8.75;;;;;11.02;58.29;102013.38;4986901;28;45484;-64
2023/04/16 02:38:43;;;;;;;;;7.75;6.25;;;;;11.00;58.52;102007.16;4970767;28;45477;-64
2023/04/16 02:41:08;;;;;;;;;8.75;7.75;;;;;10.96;58.97;102013.47;4982248;28;45434;-63
2023/04/16 02:43:34;;;;;;;;;10.00;8.75;;;;;10.94;58.65;102012.59;4982193;28;45348;-63
2023/04/16 02:45:59;;;;;;;;;8.75;8.75;;;;;10.93;58.85;102008.16;4980952;28;45665;-63
2023/04/16 02:48:25;;;;;;;;;9.00;8.25;;;;;10.93;58.87;102008.16;4982678;28;45380;-63
2023/04/16 02:50:50;;;;;;;;;9.50;8.50;;;;;10.93;59.00;102005.50;4980661;28;45428;-63
2023/04/16 02:53:15;;;;;;;;;5.25;5.25;;;;;10.92;59.35;102009.06;4964537;28;45573;-64
2023/04/16 02:55:41;;;;;;;;;9.25;8.75;;;;;10.89;59.45;102012.66;4981201;28;45385;-63
2023/04/16 02:58:06;;;;;;;;;10.75;10.00;;;;;10.86;59.13;102003.78;4982295;28;45502;-64
2023/04/16 03:00:31;;;;;;;;;8.75;6.75;;;;;10.84;58.94;102009.19;4982272;28;45531;-63
2023/04/16 03:02:57;;;;;;;;;9.50;8.00;;;;;10.81;59.49;102008.31;4987693;28;47960;-64
2023/04/16 03:05:22;;;;;;;;;9.75;9.25;;;;;10.84;59.26;102013.63;4969917;28;54022;-64
2023/04/16 03:07:49;;;;;;;;;9.75;9.00;;;;;10.74;59.48;102002.16;4982091;28;48668;-64
2023/04/16 03:10:15;;;;;;;;;9.75;8.50;;;;;10.77;59.71;102009.28;4981832;28;45250;-63
2023/04/16 03:12:40;;;;;;;;;10.00;7.00;;;;;10.78;59.69;102011.03;4981738;28;46140;-63
2023/04/16 03:15:06;;;;;;;;;13.50;10.00;;;;;10.70;59.31;101995.09;4981969;28;45394;-64
2023/04/16 03:17:32;;;;;;;;;7.25;7.25;;;;;10.73;59.22;102008.44;4982236;28;45467;-64
2023/04/16 03:19:57;;;;;;;;;9.75;9.00;;;;;10.69;60.04;102010.25;4981711;28;45568;-63
2023/04/16 03:22:22;;;;;;;;;8.50;8.50;;;;;10.66;59.79;102012.97;4981773;28;46201;-63
2023/04/16 03:24:48;;;;;;;;;8.00;7.00;;;;;10.68;59.78;102021.84;4980583;28;45400;-63
2023/04/16 03:27:13;;;;;;;;;5.50;5.50;;;;;10.60;59.95;102007.69;4977632;28;45646;-63
2023/04/16 03:29:38;;;;;;;;;10.50;8.00;;;;;10.62;59.66;102013.00;4984748;28;47833;-63
2023/04/16 03:32:04;;;;;;;;;8.50;7.25;;;;;10.60;60.09;102017.50;4980940;28;46760;-63
2023/04/16 03:34:29;;;;;;;;;7.75;7.50;;;;;10.60;60.35;102021.03;4981699;28;45670;-63
2023/04/16 03:36:54;;;;;;;;;9.25;9.00;;;;;10.60;59.83;102014.81;4980928;28;45372;-63
2023/04/16 03:39:20;;;;;;;;;8.25;8.25;;;;;10.47;59.82;101998.94;4974458;28;45388;-63
2023/04/16 03:41:45;;;;;;;;;10.50;8.25;;;;;10.53;59.80;102012.22;4981259;28;46010;-63
2023/04/16 03:44:11;;;;;;;;;8.75;7.75;;;;;10.48;60.34;101994.50;4981382;28;45373;-63
2023/04/16 03:46:36;;;;;;;;;10.00;9.00;;;;;10.54;60.42;102002.41;4981630;28;45643;-63
2023/04/16 03:49:01;;;;;;;;;7.50;7.50;;;;;10.52;60.01;102007.81;4981567;28;45401;-64
2023/04/16 03:51:26;;;;;;;;;14.50;9.25;;;;;10.47;60.10;102001.59;4980821;28;51209;-63
2023/04/16 03:53:52;;;;;;;;;9.50;9.50;;;;;10.47;60.12;102008.75;4981340;28;46519;-64
2023/04/16 03:56:17;;;;;;;;;10.50;8.50;;;;;10.46;60.20;102017.66;4980486;28;45578;-63
2023/04/16 03:58:42;;;;;;;;;9.50;9.50;;;;;10.40;60.38;102015.94;4981159;28;45909;-63
2023/04/16 04:01:08;;;;;;;;;14.00;10.00;;;;;10.36;60.19;102012.41;4980856;28;49101;-63
2023/04/16 04:03:33;;;;;;;;;9.50;8.25;;;;;10.35;60.58;102017.78;4982832;28;55938;-63
2023/04/16 04:05:58;;;;;;;;;9.00;9.00;;;;;10.28;60.13;102006.25;4980760;28;49990;-63
2023/04/16 04:08:24;;;;;;;;;9.50;9.50;;;;;10.35;60.22;102018.66;4980995;28;51672;-63
2023/04/16 04:10:50;;;;;;;;;10.25;8.75;;;;;10.36;60.27;102025.75;4980799;28;46009;-63
2023/04/16 04:13:15;;;;;;;;;12.25;11.25;;;;;10.29;60.52;102017.78;4980646;28;48347;-63
2023/04/16 04:15:40;;;;;;;;;10.50;9.75;;;;;10.35;60.47;102029.31;4981143;28;45490;-63
2023/04/16 04:18:06;;;;;;;;;10.75;10.75;;;;;10.28;60.94;102019.59;4981157;28;45454;-63
2023/04/16 04:20:31;;;;;;;;;11.00;9.25;;;;;10.32;60.83;102029.38;4980651;28;45475;-63
2023/04/16 04:22:56;;;;;;;;;10.00;9.50;;;;;10.32;60.80;102028.47;4981114;28;45391;-63
2023/04/16 04:25:22;;;;;;;;;10.00;9.00;;;;;10.34;60.37;102038.25;4979634;28;45553;-63
2023/04/16 04:27:48;;;;;;;;;10.00;9.00;;;;;10.24;60.67;102028.53;4980956;28;45389;-63
2023/04/16 04:30:13;;;;;;;;;14.50;12.00;;;;;10.28;61.21;102048.06;4983549;28;46194;-63
2023/04/16 04:32:38;;;;;;;;;18.00;15.25;;;;;10.17;61.02;102034.81;4981069;28;45453;-63
2023/04/16 04:35:04;;;;;;;;;14.75;13.75;;;;;10.17;61.41;102038.41;4980296;28;54541;-63
2023/04/16 04:37:29;;;;;;;;;21.00;15.75;;;;;9.80;61.89;101971.16;4970239;28;45413;-63
2023/04/16 04:39:55;;;;;;;;;15.50;14.25;;;;;10.08;61.70;102040.25;4977935;28;46206;-63
2023/04/16 04:42:21;;;;;;;;;18.50;16.00;;;;;10.05;61.88;102041.16;4980391;28;45404;-63
2023/04/16 04:44:46;;;;;;;;;20.25;14.75;;;;;9.97;62.34;102033.25;4980630;28;45462;-63
2023/04/16 04:47:13;;;;;;;;;19.75;16.25;;;;;9.97;62.11;102038.59;4978432;28;45484;-63
2023/04/16 04:49:38;;;;;;;;;21.50;17.75;;;;;10.04;62.42;102042.09;4980307;28;46110;-63
2023/04/16 04:52:04;;;;;;;;;20.25;19.00;;;;;9.99;62.16;102050.13;4980133;28;45309;-63
2023/04/16 04:54:31;;;;;;;;;19.00;17.25;;;;;9.96;62.36;102052.81;4980580;28;45541;-63
2023/04/16 04:56:57;;;;;;;;;16.25;16.25;;;;;9.91;62.87;102046.63;4979271;28;45579;-63
2023/04/16 04:59:23;;;;;;;;;22.25;20.00;;;;;9.96;62.90;102062.59;4980146;28;45444;-63
2023/04/16 05:01:49;;;;;;;;;20.75;17.00;;;;;9.93;62.67;102055.50;4980342;28;45751;-63
2023/04/16 05:04:15;;;;;;;;;20.75;19.75;;;;;9.90;62.82;102051.97;4993133;28;45440;-63
2023/04/16 05:06:41;;;;;;;;;23.50;19.25;;;;;9.94;63.11;102064.38;4979734;28;45448;-63
2023/04/16 05:09:10;;;;;;;;;25.00;22.75;;;;;9.98;63.07;102061.69;4979989;28;46436;-63
2023/04/16 05:11:37;;;;;;;;;25.00;17.25;;;;;10.01;63.16;102067.00;4979807;28;45306;-63
2023/04/16 05:14:02;;;;;;;;;25.25;21.50;;;;;9.99;63.13;102058.13;4979569;28;46201;-63
2023/04/16 05:16:27;;;;;;;;;19.25;15.25;;;;;10.10;62.74;102073.16;4980077;28;45308;-63
2023/04/16 05:18:54;;;;;;;;;23.50;20.50;;;;;10.10;62.71;102063.34;4978838;28;45298;-64
2023/04/16 05:21:20;;;;;;;;;19.00;18.25;;;;;10.13;62.93;102070.44;4982517;28;45377;-63
2023/04/16 05:23:46;;;;;;;;;28.00;21.75;;;;;10.11;62.93;102066.91;4979035;28;45516;-63
2023/04/16 05:26:11;;;;;;;;;21.75;21.25;;;;;10.14;62.44;102064.19;4978941;28;45538;-63
2023/04/16 05:28:36;;;;;;;;;23.00;22.00;;;;;10.18;63.02;102077.50;4979656;28;46162;-63
2023/04/16 05:31:02;;;;;;;;;25.25;24.25;;;;;10.16;63.00;102081.09;4982834;28;50819;-63
2023/04/16 05:33:27;;;;;;;;;24.50;23.75;;;;;10.10;63.19;102074.00;4982644;28;45517;-63
2023/04/16 05:35:52;;;;;;;;;25.75;23.50;;;;;10.07;63.46;102086.50;4991668;28;45321;-63
2023/04/16 05:38:17;;;;;;;;;27.00;25.50;;;;;9.97;63.38;102085.69;4972958;28;46290;-63
2023/04/16 05:40:43;;;;;;;;;30.75;26.25;;;;;9.90;63.47;102078.66;4979442;28;51484;-63
2023/04/16 05:43:08;;;;;;;;;28.25;24.00;;;;;9.91;63.32;102086.63;4978049;28;45433;-63
2023/04/16 05:45:38;;;;;;;;;24.25;19.00;;;;;9.88;63.67;102088.44;4979911;28;45310;-63
2023/04/16 05:48:04;;;;;;;;;23.50;23.50;;;;;9.77;63.81;102076.09;4979487;28;45532;-63
2023/04/16 05:50:30;;;;;;;;;30.50;26.00;;;;;9.79;64.10;102094.75;4979176;28;45449;-63
2023/04/16 05:52:55;;;;;;;;;31.75;26.50;;;;;9.78;64.46;102104.50;4979747;28;45533;-63
2023/04/16 05:55:20;;;;;;;;;27.75;24.50;;;;;9.76;64.80;102108.09;4976741;28;45317;-63
2023/04/16 05:57:45;;;;;;;;;34.00;28.50;;;;;9.70;64.77;102102.81;4979049;28;53911;-63
2023/04/16 06:00:11;;;;;;;;;33.75;30.00;;;;;9.72;64.61;102109.91;4954067;28;52962;-63
2023/04/16 06:02:36;;;;;;;;;29.25;25.75;;;;;9.69;64.74;102101.94;4982078;28;45510;-63
2023/04/16 06:05:02;;;;;;;;;30.00;26.50;;;;;9.80;64.74;102117.84;4987355;28;49942;-63
2023/04/16 06:07:27;;;;;;;;;32.25;23.25;;;;;9.82;64.99;102114.28;4961309;28;45322;-63
2023/04/16 06:09:52;;;;;;;;;34.00;30.50;;;;;9.77;65.14;102094.75;4959982;28;45342;-64
2023/04/16 06:12:17;;;;;;;;;26.25;25.25;;;;;9.83;64.71;102096.47;4964250;28;45364;-64
2023/04/16 06:14:43;;;;;;;;;35.25;28.25;;;;;9.92;64.61;102107.09;4979035;28;45487;-63
2023/04/16 06:17:08;;;;;;;;;31.75;26.25;;;;;9.81;65.16;102098.28;4981826;28;46220;-63
2023/04/16 06:19:33;;;;;;;;;35.00;28.25;;;;;9.78;65.06;102104.50;4958025;28;51866;-63
2023/04/16 06:21:59;;;;;;;;;27.00;26.00;;;;;9.73;65.08;102105.44;4977525;28;45369;-66
2023/04/16 06:24:24;;;;;;;;;32.25;30.75;;;;;9.81;65.48;102111.63;4976544;28;45499;-65
2023/04/16 06:26:49;;;;;;;;;32.75;27.25;;;;;9.83;65.53;102117.81;4976320;28;54975;-65
2023/04/16 06:29:15;;;;;;;;;40.50;31.00;;;;;9.78;65.29;102109.84;4974968;28;45434;-65
2023/04/16 06:31:40;;;;;;;;;26.25;23.25;;;;;9.80;65.51;102118.72;4990052;28;45649;-65
2023/04/16 06:34:06;;;;;;;;;28.25;25.50;;;;;9.80;65.69;102115.16;4979100;28;45364;-65
2023/04/16 06:36:31;;;;;;;;;30.50;29.25;;;;;9.83;65.90;102116.03;4980037;28;45374;-65
2023/04/16 06:38:56;;;;;;;;;27.50;24.75;;;;;9.86;65.26;102111.59;4965292;28;45417;-65
2023/04/16 06:41:24;;;;;;;;;34.00;28.25;;;;;9.82;65.67;102110.69;4977979;28;47022;-66
2023/04/16 06:43:49;;;;;;;;;34.75;33.00;;;;;9.87;65.44;102114.22;4969273;28;45495;-66
2023/04/16 06:46:15;;;;;;;;;32.00;28.25;;;;;9.81;65.42;102103.63;4988252;28;45510;-66
2023/04/16 06:48:40;;;;;;;;;28.50;27.50;;;;;9.85;65.47;102107.13;4988483;28;45439;-66
2023/04/16 06:51:05;;;;;;;;;41.50;35.50;;;;;9.81;65.77;102117.81;4985405;28;45351;-66
2023/04/16 06:53:31;;;;;;;;;30.00;29.50;;;;;9.81;65.87;102120.50;4975884;28;45404;-66
2023/04/16 06:55:56;;;;;;;;;31.25;27.00;;;;;9.88;66.03;102125.78;4977713;28;45510;-66
2023/04/16 06:58:21;;;;;;;;;38.75;31.75;;;;;9.87;65.72;102118.69;4978605;28;45353;-66
2023/04/16 07:00:47;;;;;;;;;37.25;32.25;;;;;9.88;65.67;102124.00;4979076;28;45381;-66
2023/04/16 07:03:12;;;;;;;;;30.50;23.75;;;;;9.93;65.82;102124.84;4981651;28;45487;-65
2023/04/16 07:05:38;;;;;;;;;31.50;25.25;;;;;9.99;66.05;102126.59;4978746;28;46088;-65
2023/04/16 07:08:03;;;;;;;;;35.00;28.00;;;;;10.03;65.85;102125.66;4977318;28;45334;-65
2023/04/16 07:10:28;;;;;;;;;23.25;21.50;;;;;10.09;65.36;102133.63;4978169;28;45222;-64
2023/04/16 07:12:54;;;;;;;;;32.50;25.25;;;;;10.14;65.34;102121.13;4980975;28;45416;-64
2023/04/16 07:15:19;;;;;;;;;29.00;26.00;;;;;10.17;64.72;102114.88;4981865;28;46135;-66
2023/04/16 07:17:45;;;;;;;;;32.75;27.25;;;;;10.17;65.24;102126.44;4981300;28;49947;-66
2023/04/16 07:20:10;;;;;;;;;37.50;31.75;;;;;10.21;65.56;102116.63;4979997;28;45858;-66
2023/04/16 07:22:35;;;;;;;;;32.75;29.00;;;;;10.17;65.23;102112.19;4983165;28;45257;-66
2023/04/16 07:25:01;;;;;;;;;35.00;33.00;;;;;10.28;65.47;102129.00;4971706;28;46170;-66
2023/04/16 07:27:26;;;;;;;;;35.00;29.00;;;;;10.31;64.92;102118.31;4961745;28;45327;-66
2023/04/16 07:29:51;;;;;;;;;38.00;32.50;;;;;10.30;64.82;102113.88;4977810;28;49577;-66
2023/04/16 07:32:17;;;;;;;;;34.00;30.25;;;;;10.33;65.28;102123.69;4978661;28;45693;-66
2023/04/16 07:34:42;;;;;;;;;33.50;30.50;;;;;10.31;65.09;102128.13;4980196;28;45467;-66
2023/04/16 07:37:08;;;;;;;;;31.25;28.75;;;;;10.36;65.22;102126.31;4988494;28;45472;-66
2023/04/16 07:39:33;;;;;;;;;35.25;34.25;;;;;10.34;65.29;102118.31;4980452;28;45788;-66
2023/04/16 07:41:59;;;;;;;;;42.25;33.25;;;;;10.38;65.23;102125.38;4980726;28;45425;-66
2023/04/16 07:44:24;;;;;;;;;31.25;28.50;;;;;10.33;64.84;102111.19;4981659;28;45753;-66
2023/04/16 07:46:50;;;;;;;;;36.50;33.75;;;;;10.44;65.26;102127.13;4981259;28;45378;-66
2023/04/16 07:49:15;;;;;;;;;36.25;28.50;;;;;10.46;65.41;102128.00;4981334;28;51074;-66
2023/04/16 07:51:40;;;;;;;;;37.75;34.00;;;;;10.51;64.82;102136.84;4983536;28;45427;-65
2023/04/16 07:54:06;;;;;;;;;30.75;26.25;;;;;10.54;65.05;102133.25;4980798;28;45470;-66
2023/04/16 07:56:31;;;;;;;;;30.00;27.75;;;;;10.58;64.72;102132.31;4980879;28;49188;-68
2023/04/16 07:58:56;;;;;;;;;40.00;27.75;;;;;10.64;64.97;102134.94;4980960;28;45575;-65
2023/04/16 08:01:21;;;;;;;;;31.50;29.75;;;;;10.67;64.94;102129.53;4986293;28;48606;-65
2023/04/16 08:03:47;;;;;;;;;28.00;26.75;;;;;10.70;64.75;102132.19;4982563;28;45499;-67
2023/04/16 08:06:12;;;;;;;;;34.75;30.25;;;;;10.73;63.73;102129.50;4987386;28;45309;-66
2023/04/16 08:08:37;;;;;;;;;29.00;27.00;;;;;10.80;63.75;102142.78;4978423;28;45487;-66
2023/04/16 08:11:03;;;;;;;;;25.50;21.75;;;;;10.67;64.14;102124.19;4986982;28;52943;-66
2023/04/16 08:13:28;;;;;;;;;31.50;27.00;;;;;10.81;63.84;102145.44;4980647;28;45332;-66
2023/04/16 08:15:53;;;;;;;;;35.75;31.50;;;;;10.88;63.74;102146.25;4988989;28;53799;-66
2023/04/16 08:18:19;;;;;;;;;32.25;28.25;;;;;10.89;63.77;102140.91;4981108;28;45305;-66
2023/04/16 08:20:44;;;;;;;;;30.75;25.25;;;;;10.90;63.79;102136.44;4981072;28;45230;-66
2023/04/16 08:23:09;;;;;;;;;31.50;25.00;;;;;10.91;64.00;102122.19;4981708;28;46204;-66
2023/04/16 08:25:35;;;;;;;;;26.25;25.50;;;;;11.01;63.80;102137.19;4983062;28;45345;-66
2023/04/16 08:28:00;;;;;;;;;23.00;20.75;;;;;11.09;63.64;102145.09;4980400;28;45401;-66
2023/04/16 08:30:26;;;;;;;;;25.25;23.75;;;;;11.13;63.84;102144.19;4982077;28;45613;-66
2023/04/16 08:32:51;;;;;;;;;25.25;21.25;;;;;11.19;62.65;102140.53;4983097;28;45570;-66
2023/04/16 08:35:17;;;;;;;;;24.00;23.50;;;;;11.22;62.75;102141.38;4967987;28;45340;-65
2023/04/16 08:37:42;;;;;;;;;26.75;23.75;;;;;11.27;62.58;102146.66;4987907;28;45528;-64
2023/04/16 08:40:08;;;;;;;;;28.50;26.00;;;;;11.31;62.42;102148.41;4979877;28;52526;-65
2023/04/16 08:42:39;;;;;;;;;28.00;25.75;;;;;11.35;62.49;102142.09;4980573;28;46015;-64
2023/04/16 08:45:14;;;;;;;;;28.75;26.50;;;;;11.33;62.32;102135.91;4980563;28;45788;-64
2023/04/16 08:47:40;;;;;;;;;27.00;20.50;;;;;11.44;62.76;102155.38;4980455;28;45312;-66
2023/04/16 08:50:10;;;;;;;;;23.00;21.50;;;;;11.46;62.29;102150.88;4970599;28;45448;-64
2023/04/16 08:52:41;;;;;;;;;26.50;23.75;;;;;11.47;61.67;102141.06;4963806;28;46094;-64
2023/04/16 08:55:13;;;;;;;;;26.00;24.75;;;;;11.52;61.43;102152.56;4975106;28;45747;-64
2023/04/16 08:57:47;;;;;;;;;32.25;28.75;;;;;11.55;61.82;102143.63;4975612;28;45371;-64
2023/04/16 09:00:13;;;;;;;;;25.75;23.00;;;;;11.61;61.84;102151.56;4971852;28;45354;-64
2023/04/16 09:02:39;;;;;;;;;18.00;16.00;;;;;11.66;61.55;102147.03;4976580;28;46557;-64
2023/04/16 09:05:06;;;;;;;;;25.75;23.75;;;;;11.71;61.83;102150.53;4970866;28;45511;-64
2023/04/16 09:07:33;;;;;;;;;20.25;19.00;;;;;11.77;61.32;102153.09;4991936;28;45419;-64
2023/04/16 09:10:00;;;;;;;;;25.50;21.25;;;;;11.79;61.80;102153.97;4978153;28;45455;-64
2023/04/16 09:12:25;;;;;;;;;19.25;16.50;;;;;11.88;61.27;102158.31;4983876;28;47198;-64
2023/04/16 09:14:50;;;;;;;;;22.25;21.00;;;;;11.90;60.23;102158.28;4983972;28;45308;-64
2023/04/16 09:17:17;;;;;;;;;22.75;19.25;;;;;11.87;59.96;102144.03;4978293;28;50501;-64
2023/04/16 09:19:43;;;;;;;;;27.00;20.75;;;;;11.96;60.11;102159.13;4972936;28;45312;-65
2023/04/16 09:22:10;;;;;;;;;27.00;20.75;;;;;12.00;59.45;102165.28;4975906;28;46426;-65
2023/04/16 09:24:37;;;;;;;;;23.50;19.00;;;;;11.98;59.30;102159.09;4971316;28;45592;-65
2023/04/16 09:27:03;;;;;;;;;19.50;17.50;;;;;12.03;59.51;102159.91;4982297;28;45385;-65
2023/04/16 09:29:36;;;;;;;;;18.00;17.75;;;;;12.09;59.47;102154.44;4975720;28;45574;-67
2023/04/16 09:32:03;;;;;;;;;26.50;23.25;;;;;12.11;58.86;102162.44;4967466;28;46098;-67
2023/04/16 09:34:31;;;;;;;;;20.25;20.00;;;;;12.16;59.09;102163.25;4986056;28;45620;-67
2023/04/16 09:37:14;;;;;;;;;21.75;20.25;;;;;12.19;58.90;102171.22;4984332;28;45507;-67
2023/04/16 09:39:40;;;;;;;;;14.50;14.25;;;;;12.21;58.60;102164.06;4979503;28;45404;-67
2023/04/16 09:42:06;;;;;;;;;15.25;15.00;;;;;12.24;58.90;102158.66;4974191;28;45395;-67
2023/04/16 09:44:38;;;;;;;;;20.25;18.25;;;;;12.31;57.98;102164.78;4979150;28;45383;-67
2023/04/16 09:47:06;;;;;;;;;21.50;19.75;;;;;12.25;58.24;102154.19;4963354;28;45409;-67
2023/04/16 09:49:36;;;;;;;;;17.75;16.25;;;;;12.36;58.29;102160.22;4979362;28;45594;-67
2023/04/16 09:52:02;;;;;;;;;18.00;18.00;;;;;12.42;58.15;102161.00;4975373;28;46135;-67
2023/04/16 09:54:27;;;;;;;;;16.75;15.25;;;;;12.46;58.26;102155.59;4977562;28;45505;-68
2023/04/16 09:56:56;;;;;;;;;20.25;17.75;;;;;12.51;58.18;102165.34;4978710;28;45491;-67
2023/04/16 09:59:22;;;;;;;;;23.00;18.00;;;;;12.58;58.16;102164.31;4976608;28;45749;-68
2023/04/16 10:01:48;;;;;;;;;15.75;14.75;;;;;12.64;57.81;102163.31;4985965;28;46246;-67
2023/04/16 10:04:14;;;;;;;;;19.50;15.00;;;;;12.68;57.67;102157.00;4977683;28;45717;-67
2023/04/16 10:06:39;;;;;;;;;16.25;15.75;;;;;12.73;57.00;102149.75;4982827;28;46649;-68
2023/04/16 10:09:08;;;;;;;;;17.75;17.00;;;;;12.79;57.11;102165.69;4980065;28;45499;-69
2023/04/16 10:11:34;;;;;;;;;16.75;15.75;;;;;12.83;57.30;102158.50;4977648;28;45392;-69
2023/04/16 10:14:00;;;;;;;;;17.25;16.00;;;;;12.90;57.00;102161.94;4978445;28;45510;-69
2023/04/16 10:16:26;;;;;;;;;17.00;16.25;;;;;12.94;57.08;102167.19;4979432;28;45539;-69
2023/04/16 10:18:52;;;;;;;;;11.50;11.50;;;;;12.98;55.42;102171.59;4979198;28;45499;-68
2023/04/16 10:21:18;;;;;;;;;13.50;13.00;;;;;13.02;55.55;102166.19;4978222;28;46239;-68
2023/04/16 10:23:43;;;;;;;;;13.50;9.25;;;;;13.07;55.31;102177.69;4979158;28;46007;-68
2023/04/16 10:26:09;;;;;;;;;11.75;11.75;;;;;13.06;54.89;102168.75;4979133;28;45728;-68
2023/04/16 10:28:35;;;;;;;;;19.50;16.50;;;;;13.14;55.33;102165.94;4978921;28;45495;-68
2023/04/16 10:31:02;;;;;;;;;12.75;12.25;;;;;13.15;54.97;102167.72;4988812;28;46582;-68
2023/04/16 10:33:31;;;;;;;;;12.00;12.00;;;;;13.23;54.73;102163.06;4977185;28;45703;-70
2023/04/16 10:36:13;;;;;;;;;14.75;14.00;;;;;13.27;54.89;102164.75;4980975;28;45692;-64
2023/04/16 10:38:40;;;;;;;;;15.75;13.00;;;;;13.34;54.82;102165.53;4978500;28;45563;-65
2023/04/16 10:41:07;;;;;;;;;14.75;12.75;;;;;13.40;54.75;102167.19;4978796;28;45369;-66
2023/04/16 10:43:40;;;;;;;;;12.25;10.25;;;;;13.47;54.88;102155.44;4978760;28;45621;-66
2023/04/16 10:46:20;;;;;;;;;15.25;15.25;;;;;13.55;54.20;102166.00;4980487;28;45416;-66
2023/04/16 10:48:47;;;;;;;;;13.25;13.25;;;;;13.59;54.31;102159.66;4982403;28;45258;-66
2023/04/16 10:51:26;;;;;;;;;14.75;12.75;;;;;13.66;53.78;102166.63;4981665;28;45465;-66
2023/04/16 10:53:54;;;;;;;;;12.00;10.25;;;;;13.65;53.63;102152.34;4981301;28;45278;-66
2023/04/16 10:56:22;;;;;;;;;15.00;14.00;;;;;13.76;53.25;102167.31;4982367;28;45341;-66
2023/04/16 10:58:48;;;;;;;;;14.25;12.00;;;;;13.72;53.37;102158.47;4969666;28;45398;-65
2023/04/16 11:01:15;;;;;;;;;9.25;8.25;;;;;13.76;52.51;102160.13;4981977;28;56995;-65
2023/04/16 11:03:42;;;;;;;;;9.50;9.00;;;;;13.80;52.76;102164.53;4987472;28;45423;-66
2023/04/16 11:06:11;;;;;;;;;11.50;9.00;;;;;13.82;51.91;102157.31;4982335;28;45325;-66
2023/04/16 11:08:39;;;;;;;;;9.75;8.75;;;;;13.85;51.39;102165.31;4982270;28;45526;-66
2023/04/16 11:11:05;;;;;;;;;9.00;9.00;;;;;13.87;51.19;102159.91;4980743;28;47066;-66